Startpagina
METAR-TAF:

METAR-TAF

Vliegvelden :

Ankara Esenboğa, Turkije

Luchthaven Ankara Esenboga

breedte: 40-07N, lengte: 032-59E, hoogte: 953 m

Actueel weer

Dit bericht is 16 minuten geleden gemaakt, om 09:50 UTC
Wind 2 kt uit variabele richting
Temperatuur 9°C
Vochtigheid 46%
Druk 1015 hPa
Zicht 10 km of meer
Weinig wolken op 4000 ft
Gebroken wolken op 20000 ft

METAR: LTAC 190950Z VRB02KT 9999 FEW040 BKN200 09/M02 Q1015 NOSIG

Tijdstip: 13:06 (10:06 UTC)

Verwachting

Dit bericht is 5 uur en het 26 minuten geleden gemaakt, om 04:40 UTC
Verwachting geldig van 19 om 06 UTC tot 20 om 06 UTC
Wind 2 kt uit variabele richting
Zicht 10 km of meer
Verspreide wolken op 4000 ft
Gebroken wolken op 18000 ft
Tijdelijke
van 19 om 06 UTC tot 19 om 07 UTC
Zicht: 4000 m
nevel

TAF: LTAC 190440Z 1906/2006 VRB02KT 9999 SCT040 BKN180 TEMPO 1906/1907 4000 BR

Waarnemingen en weersverwachtingen van meer dan 4000 vliegvelden (METAR en TAF).

De beschikbare stations zijn de gele en rode punten op de kaart.

Ga met uw muis naar het station om de naam te zien.

Klik dan om waarnemingen en weersverwachtingen te zien.

kaart wijzigen: klik op de groene knoppen met een zwart kruis om in te zoomen, op de groene knop met een streepje om uit te zoomen of op de groene pijlen voor aangrenzende kaarten.


METAR-TAF: